createdAt,value
2016-06-19T00:00:06.089Z,70.37
2016-06-19T00:01:05.421Z,69.51
2016-06-19T00:02:05.424Z,69.51
2016-06-19T00:03:06.053Z,69.6
2016-06-19T00:04:05.400Z,69.31
2016-06-19T00:05:06.029Z,69.79
2016-06-19T00:06:06.001Z,69.51
2016-06-19T00:07:05.364Z,69.51
2016-06-19T00:08:05.992Z,69.31
2016-06-19T00:09:05.980Z,69.41
2016-06-19T00:10:05.953Z,69.6
2016-06-19T00:11:05.940Z,69.7
2016-06-19T00:12:05.928Z,69.6
2016-06-19T00:13:05.260Z,69.7
2016-06-19T00:14:05.248Z,69.51
2016-06-19T00:15:05.877Z,69.41
2016-06-19T00:16:05.880Z,69.6
2016-06-19T00:17:05.195Z,69.99
2016-06-19T00:18:05.183Z,69.51
2016-06-19T00:19:05.186Z,70.28
2016-06-19T00:20:05.815Z,70.37
2016-06-19T00:21:05.148Z,70.18
2016-06-19T00:22:05.791Z,69.99
2016-06-19T00:23:05.763Z,70.47
2016-06-19T00:24:05.110Z,70.28
2016-06-19T00:25:05.739Z,70.18
2016-06-19T00:26:05.727Z,70.18
2016-06-19T00:27:05.058Z,70.18
2016-06-19T00:28:05.047Z,70.56
2016-06-19T00:29:05.689Z,71.24
2016-06-19T00:30:05.678Z,71.11
2016-06-19T00:31:05.666Z,70.92
2016-06-19T00:32:05.653Z,71.01
2016-06-19T00:33:05.626Z,71.01
2016-06-19T00:34:05.613Z,70.92
2016-06-19T00:35:04.946Z,70.92
2016-06-19T00:36:04.949Z,71.01
2016-06-19T00:37:04.937Z,70.82
2016-06-19T00:38:04.909Z,71.11
2016-06-19T00:39:04.896Z,71.3
2016-06-19T00:40:04.884Z,70.82
2016-06-19T00:41:04.872Z,70.76
2016-06-19T00:42:05.516Z,70.47
2016-06-19T00:43:05.520Z,70.82
2016-06-19T00:44:04.820Z,71.49
2016-06-19T00:45:04.809Z,71.3
2016-06-19T00:46:04.796Z,71.3
2016-06-19T00:47:05.424Z,72.26
2016-06-19T00:48:04.771Z,71.3
2016-06-19T00:49:05.415Z,72.07
2016-06-19T00:50:04.732Z,71.97
2016-06-19T00:51:05.376Z,71.3
2016-06-19T00:52:04.708Z,71.59
2016-06-19T00:53:05.351Z,72.07
2016-06-19T00:54:05.323Z,71.97
2016-06-19T00:55:04.670Z,71.78
2016-06-19T00:56:04.658Z,72.26
2016-06-19T00:57:04.662Z,72.26
2016-06-19T00:58:05.275Z,72.07
2016-06-19T00:59:05.279Z,72.26
2016-06-19T01:00:04.594Z,73.32
2016-06-19T01:01:04.582Z,73.42
2016-06-19T01:02:05.226Z,73.09
2016-06-19T01:03:04.558Z,73
2016-06-19T01:04:05.186Z,72.84
2016-06-19T01:05:05.174Z,72.07
2016-06-19T01:06:04.506Z,72.45
2016-06-19T01:07:04.493Z,72.26
2016-06-19T01:08:04.480Z,72.84
2016-06-19T01:09:04.469Z,72.84
2016-06-19T01:10:05.097Z,72.94
2016-06-19T01:11:04.460Z,73.13
2016-06-19T01:12:05.074Z,72.74
2016-06-19T01:13:04.405Z,73.61
2016-06-19T01:14:05.065Z,72.94
2016-06-19T01:15:05.037Z,73.51
2016-06-19T01:16:04.369Z,73.67
2016-06-19T01:17:05.012Z,73.42
2016-06-19T01:18:05.001Z,73.42
2016-06-19T01:19:04.973Z,73.51
2016-06-19T01:20:04.960Z,73.9
2016-06-19T01:21:04.948Z,73.9
2016-06-19T01:22:04.936Z,74.29
2016-06-19T01:23:04.267Z,73.99
2016-06-19T01:24:04.255Z,74.44
2016-06-19T01:25:04.244Z,74.73
2016-06-19T01:26:04.231Z,75.31
2016-06-19T01:27:04.860Z,75.49
2016-06-19T01:28:04.847Z,75.59
2016-06-19T01:29:04.835Z,75.49
2016-06-19T01:30:04.167Z,75.59
2016-06-19T01:31:04.811Z,75.11
2016-06-19T01:32:04.143Z,75.49
2016-06-19T01:33:04.130Z,74.73
2016-06-19T01:34:04.118Z,75.02
2016-06-19T01:35:04.106Z,75.88
2016-06-19T01:36:04.735Z,76.36
2016-06-19T01:37:04.722Z,75.98
2016-06-19T01:38:04.709Z,75.59
2016-06-19T01:39:04.698Z,75.31
2016-06-19T01:40:04.030Z,75.88
2016-06-19T01:41:04.017Z,75.4
2016-06-19T01:42:03.989Z,75.4
2016-06-19T01:43:04.634Z,75.88
2016-06-19T01:44:04.621Z,75.21
2016-06-19T01:45:03.953Z,75.15
2016-06-19T01:46:04.597Z,75.11
2016-06-19T01:47:04.569Z,75.31
2016-06-19T01:48:04.573Z,75.15
2016-06-19T01:49:03.905Z,75.15
2016-06-19T01:50:04.548Z,74.76
2016-06-19T01:51:04.536Z,75.24
2016-06-19T01:52:04.508Z,75.05
2016-06-19T01:53:04.497Z,75.21
2016-06-19T01:54:03.828Z,75.34
2016-06-19T01:55:03.819Z,75.05
2016-06-19T01:56:04.452Z,75.34
2016-06-19T01:57:04.459Z,74.76
2016-06-19T01:58:03.779Z,74.38
2016-06-19T01:59:03.769Z,74.67
2016-06-19T02:00:04.415Z,74.96
2016-06-19T02:01:04.404Z,75.24
2016-06-19T02:02:04.377Z,75.24
2016-06-19T02:03:04.399Z,75.15
2016-06-19T02:04:03.715Z,75.15
2016-06-19T02:05:03.703Z,74.86
2016-06-19T02:06:03.676Z,75.24
2016-06-19T02:07:04.321Z,74.96
2016-06-19T02:08:03.669Z,75.24
2016-06-19T02:09:03.641Z,75.63
2016-06-19T02:10:04.269Z,74.96
2016-06-19T02:11:04.289Z,75.24
2016-06-19T02:12:03.604Z,75.24
2016-06-19T02:13:03.576Z,75.15
2016-06-19T02:14:03.565Z,75.63
2016-06-19T02:15:04.209Z,75.24
2016-06-19T02:16:03.555Z,75.92
2016-06-19T02:17:03.528Z,75.05
2016-06-19T02:18:03.516Z,75.44
2016-06-19T02:19:04.145Z,75.24
2016-06-19T02:20:04.131Z,75.24
2016-06-19T02:21:04.120Z,75.73
2016-06-19T02:22:03.468Z,76.01
2016-06-19T02:23:03.455Z,75.63
2016-06-19T02:24:03.458Z,76.11
2016-06-19T02:25:03.415Z,75.79
2016-06-19T02:26:04.044Z,76.01
2016-06-19T02:27:03.391Z,76.17
2016-06-19T02:28:03.378Z,76.36
2016-06-19T02:29:03.367Z,76.07
2016-06-19T02:30:03.995Z,76.36
2016-06-19T02:31:03.983Z,76.26
2016-06-19T02:32:03.955Z,76.65
2016-06-19T02:33:03.959Z,77.23
2016-06-19T02:34:03.946Z,76.65
2016-06-19T02:35:03.934Z,76.26
2016-06-19T02:36:03.906Z,76.21
2016-06-19T02:37:03.894Z,76.46
2016-06-19T02:38:03.273Z,76.36
2016-06-19T02:39:03.869Z,76.26
2016-06-19T02:40:03.841Z,76.56
2016-06-19T02:41:03.829Z,77.42
2016-06-19T02:42:03.177Z,76.65
2016-06-19T02:43:03.165Z,76.17
2016-06-19T02:44:03.153Z,76.26
2016-06-19T02:45:03.125Z,76.36
2016-06-19T02:46:03.753Z,77.04
2016-06-19T02:47:03.100Z,77.13
2016-06-19T02:48:03.089Z,77.13
2016-06-19T02:49:03.075Z,76.75
2016-06-19T02:50:03.048Z,76.56
2016-06-19T02:51:03.052Z,76.94
2016-06-19T02:52:03.040Z,77.42
2016-06-19T02:53:03.011Z,77.23
2016-06-19T02:54:03.656Z,76.94
2016-06-19T02:55:03.628Z,76.94
2016-06-19T02:56:03.616Z,76.65
2016-06-19T02:57:03.603Z,76.56
2016-06-19T02:58:02.951Z,76.84
2016-06-19T02:59:03.580Z,76.65
2016-06-19T03:00:02.911Z,77.04
2016-06-19T03:01:03.555Z,76.65
2016-06-19T03:02:02.887Z,76.46
2016-06-19T03:03:03.530Z,75.79
2016-06-19T03:04:02.863Z,76.5
2016-06-19T03:05:02.834Z,76.75
2016-06-19T03:06:02.838Z,76.46
2016-06-19T03:07:02.810Z,76.84
2016-06-19T03:08:02.798Z,76.94
2016-06-19T03:09:02.786Z,76.46
2016-06-19T03:10:02.773Z,76.36
2016-06-19T03:11:03.418Z,76.65
2016-06-19T03:12:02.749Z,76.94
2016-06-19T03:13:02.722Z,77.13
2016-06-19T03:14:03.398Z,77.13
2016-06-19T03:15:03.354Z,77.04
2016-06-19T03:16:03.341Z,76.56
2016-06-19T03:17:02.673Z,76.65
2016-06-19T03:18:03.318Z,77.23
2016-06-19T03:19:03.289Z,77.23
2016-06-19T03:20:03.277Z,76.75
2016-06-19T03:21:03.265Z,76.65
2016-06-19T03:22:02.612Z,76.46
2016-06-19T03:23:03.240Z,76.65
2016-06-19T03:24:03.228Z,76.69
2016-06-19T03:25:03.217Z,76.46
2016-06-19T03:26:02.548Z,76.01
2016-06-19T03:27:03.176Z,76.01
2016-06-19T03:28:03.164Z,75.92
2016-06-19T03:29:02.495Z,76.11
2016-06-19T03:30:02.484Z,76.01
2016-06-19T03:31:02.471Z,76.56
2016-06-19T03:32:02.459Z,76.07
2016-06-19T03:33:03.088Z,75.92
2016-06-19T03:34:02.435Z,76.21
2016-06-19T03:35:03.063Z,75.82
2016-06-19T03:36:03.051Z,75.44
2016-06-19T03:37:02.383Z,75.54
2016-06-19T03:38:02.386Z,75.63
2016-06-19T03:39:02.999Z,75.82
2016-06-19T03:40:02.987Z,75.73
2016-06-19T03:41:02.334Z,75.73
2016-06-19T03:42:02.306Z,75.82
2016-06-19T03:43:02.294Z,75.49
2016-06-19T03:44:02.938Z,75.92
2016-06-19T03:45:02.269Z,76.36
2016-06-19T03:46:02.914Z,75.88
2016-06-19T03:47:02.902Z,75.98
2016-06-19T03:48:02.889Z,75.59
2016-06-19T03:49:02.222Z,75.21
2016-06-19T03:50:02.850Z,74.86
2016-06-19T03:51:02.837Z,74.67
2016-06-19T03:52:02.168Z,74.57
2016-06-19T03:53:02.814Z,74.86
2016-06-19T03:54:02.145Z,74.96
2016-06-19T03:55:02.132Z,74.67
2016-06-19T03:56:02.105Z,74.76
2016-06-19T03:57:02.108Z,74.48
2016-06-19T03:58:02.737Z,74.86
2016-06-19T03:59:02.724Z,74.76
2016-06-19T04:00:02.057Z,74.76
2016-06-19T04:01:02.044Z,74.38
2016-06-19T04:02:02.031Z,74.96
2016-06-19T04:03:02.660Z,75.54
2016-06-19T04:04:02.007Z,75.05
2016-06-19T04:05:02.636Z,74.76
2016-06-19T04:06:02.608Z,74.67
2016-06-19T04:07:02.612Z,74.67
2016-06-19T04:08:02.599Z,75.05
2016-06-19T04:09:01.947Z,74.38
2016-06-19T04:10:02.559Z,74.48
2016-06-19T04:11:01.907Z,74.48
2016-06-19T04:12:01.896Z,74.09
2016-06-19T04:13:01.887Z,73.8
2016-06-19T04:14:01.860Z,74.19
2016-06-19T04:15:02.505Z,74.09
2016-06-19T04:16:01.823Z,73.99
2016-06-19T04:17:02.467Z,74.29
2016-06-19T04:18:02.457Z,74.19
2016-06-19T04:19:01.803Z,74.09
2016-06-19T04:20:02.433Z,74.09
2016-06-19T04:21:02.422Z,74.96
2016-06-19T04:22:01.769Z,74.67
2016-06-19T04:23:02.397Z,74.76
2016-06-19T04:24:01.729Z,75.15
2016-06-19T04:25:01.717Z,75.15
2016-06-19T04:26:01.704Z,73.99
2016-06-19T04:27:02.348Z,74.38
2016-06-19T04:28:01.680Z,73.9
2016-06-19T04:29:02.308Z,73.9
2016-06-19T04:30:01.656Z,74.09
2016-06-19T04:31:02.284Z,74.38
2016-06-19T04:32:02.271Z,73.71
2016-06-19T04:33:01.603Z,73.32
2016-06-19T04:34:01.592Z,73.71
2016-06-19T04:35:01.564Z,74.09
2016-06-19T04:36:02.207Z,74.09
2016-06-19T04:37:02.180Z,73.99
2016-06-19T04:38:01.543Z,74.48
2016-06-19T04:39:02.155Z,74.19
2016-06-19T04:40:01.502Z,73.51
2016-06-19T04:41:01.491Z,73.8
2016-06-19T04:42:01.478Z,73.71
2016-06-19T04:43:01.467Z,73.42
2016-06-19T04:44:01.439Z,73.42
2016-06-19T04:45:02.082Z,73.42
2016-06-19T04:46:02.070Z,73.71
2016-06-19T04:47:01.402Z,73.32
2016-06-19T04:48:01.390Z,73.22
2016-06-19T04:49:01.377Z,73.13
2016-06-19T04:50:02.006Z,73.51
2016-06-19T04:51:01.353Z,72.55
2016-06-19T04:52:01.326Z,72.65
2016-06-19T04:53:01.313Z,73.13
2016-06-19T04:54:01.300Z,73.32
2016-06-19T04:55:01.289Z,73.13
2016-06-19T04:56:01.277Z,72.97
2016-06-19T04:57:01.905Z,73.13
2016-06-19T04:58:01.252Z,73.16
2016-06-19T04:59:01.881Z,73.03
2016-06-19T05:00:01.868Z,72.78
2016-06-19T05:01:01.857Z,72.94
2016-06-19T05:02:01.189Z,73.22
2016-06-19T05:03:01.817Z,73.32
2016-06-19T05:04:01.164Z,73.22
2016-06-19T05:05:01.136Z,73.03
2016-06-19T05:06:01.124Z,73.32
2016-06-19T05:07:01.768Z,73.03
2016-06-19T05:08:01.099Z,72.84
2016-06-19T05:09:01.087Z,73.42
2016-06-19T05:10:01.731Z,73.42
2016-06-19T05:11:01.064Z,73.32
2016-06-19T05:12:01.051Z,72.45
2016-06-19T05:13:01.038Z,72.94
2016-06-19T05:14:01.667Z,72.94
2016-06-19T05:15:01.655Z,72.45
2016-06-19T05:16:00.987Z,72.07
2016-06-19T05:17:00.974Z,73.22
2016-06-19T05:18:00.963Z,73.13
2016-06-19T05:19:00.950Z,73.42
2016-06-19T05:20:01.578Z,73.22
2016-06-19T05:21:00.926Z,72.45
2016-06-19T05:22:00.914Z,72.65
2016-06-19T05:23:00.886Z,72.45
2016-06-19T05:24:00.890Z,72.74
2016-06-19T05:25:01.502Z,73.22
2016-06-19T05:26:00.849Z,72.65
2016-06-19T05:27:00.837Z,72.36
2016-06-19T05:28:00.809Z,72.26
2016-06-19T05:29:00.797Z,72.65
2016-06-19T05:30:01.441Z,72.65
2016-06-19T05:31:00.772Z,71.97
2016-06-19T05:32:01.418Z,72.07
2016-06-19T05:33:00.748Z,72.3
2016-06-19T05:34:01.377Z,71.3
2016-06-19T05:35:01.365Z,71.81
2016-06-19T05:36:01.353Z,71.4
2016-06-19T05:37:00.685Z,72.17
2016-06-19T05:38:01.312Z,72.17
2016-06-19T05:39:01.316Z,72.17
2016-06-19T05:40:01.304Z,72.17
2016-06-19T05:41:00.621Z,71.88
2016-06-19T05:42:01.263Z,71.24
2016-06-19T05:43:01.268Z,71.34
2016-06-19T05:44:00.583Z,71.34
2016-06-19T05:45:00.587Z,71.34
2016-06-19T05:46:00.574Z,71.14
2016-06-19T05:47:00.547Z,71.04
2016-06-19T05:48:00.535Z,71.43
2016-06-19T05:49:01.162Z,70.95
2016-06-19T05:50:01.151Z,71.04
2016-06-19T05:51:01.139Z,70.66
2016-06-19T05:52:00.487Z,71.14
2016-06-19T05:53:01.114Z,71.04
2016-06-19T05:54:01.103Z,71.04
2016-06-19T05:55:00.433Z,70.76
2016-06-19T05:56:01.078Z,71.04
2016-06-19T05:57:00.410Z,70.47
2016-06-19T05:58:00.382Z,70.76
2016-06-19T05:59:01.026Z,70.66
2016-06-19T06:00:00.357Z,70.95
2016-06-19T06:01:01.001Z,70.66
2016-06-19T06:02:00.990Z,70.47
2016-06-19T06:03:00.321Z,71.24
2016-06-19T06:04:00.949Z,70.47
2016-06-19T06:05:00.937Z,70.56
2016-06-19T06:06:00.909Z,70.09
2016-06-19T06:07:00.272Z,70.02
2016-06-19T06:08:00.886Z,70.37
2016-06-19T06:09:00.232Z,70.09
2016-06-19T06:10:00.220Z,70.37
2016-06-19T06:11:00.208Z,70.28
2016-06-19T06:12:00.196Z,70.31
2016-06-19T06:13:00.809Z,70.31
2016-06-19T06:14:00.157Z,70.21
2016-06-19T06:15:00.160Z,70.12
2016-06-19T06:16:00.131Z,70.28
2016-06-19T06:17:00.120Z,70.21
2016-06-19T06:18:00.748Z,70.21
2016-06-19T06:19:00.094Z,70.31
2016-06-19T06:20:00.723Z,70.31
2016-06-19T06:21:00.055Z,69.73
2016-06-19T06:22:00.059Z,69.93
2016-06-19T06:23:00.671Z,69.35
2016-06-19T06:24:00.659Z,69.64
2016-06-19T06:25:00.007Z,69.83
2016-06-19T06:25:59.993Z,70.02
2016-06-19T06:26:59.966Z,70.02
2016-06-19T06:28:00.617Z,70.02
2016-06-19T06:29:00.610Z,70.5
2016-06-19T06:30:00.620Z,70.09
2016-06-19T06:31:00.598Z,70.31
2016-06-19T06:32:00.575Z,69.54
2016-06-19T06:32:59.924Z,69.73
2016-06-19T06:33:59.915Z,69.54
2016-06-19T06:35:00.546Z,69.64
2016-06-19T06:35:59.896Z,69.64
2016-06-19T06:37:00.526Z,69.15
2016-06-19T06:37:59.873Z,69.15
2016-06-19T06:39:00.519Z,68.87
2016-06-19T06:39:59.835Z,68.87
2016-06-19T06:41:00.464Z,69.25
2016-06-19T06:42:00.469Z,69.25
2016-06-19T06:43:00.425Z,68.38
2016-06-19T06:43:59.788Z,69.06
2016-06-19T06:45:00.416Z,68.38
2016-06-19T06:46:00.405Z,68.29
2016-06-19T06:46:59.736Z,68.29
2016-06-19T06:48:00.396Z,68.32
2016-06-19T06:48:59.728Z,68.58
2016-06-19T06:50:00.356Z,67.84
2016-06-19T06:51:00.328Z,68.13
2016-06-19T06:51:59.675Z,67.94
2016-06-19T06:52:59.663Z,67.55
2016-06-19T06:53:59.651Z,67.26
2016-06-19T06:54:59.623Z,67.65
2016-06-19T06:55:59.611Z,67.16
2016-06-19T06:56:59.599Z,67.65
2016-06-19T06:57:59.587Z,67.55
2016-06-19T06:59:00.231Z,67.36
2016-06-19T06:59:59.574Z,67.65
2016-06-19T07:00:59.547Z,67.46
2016-06-19T07:01:59.534Z,67.46
2016-06-19T07:02:59.506Z,67.84
2016-06-19T07:03:59.495Z,67.55
2016-06-19T07:05:00.127Z,67.46
2016-06-19T07:05:59.486Z,66.78
2016-06-19T07:07:00.102Z,66.69
2016-06-19T07:07:59.446Z,66.82
2016-06-19T07:09:00.077Z,67.1
2016-06-19T07:10:00.081Z,66.91
2016-06-19T07:11:00.053Z,66.69
2016-06-19T07:11:59.381Z,67.26
2016-06-19T07:13:00.026Z,66.82
2016-06-19T07:13:59.373Z,66.72
2016-06-19T07:14:59.361Z,67
2016-06-19T07:15:59.989Z,67.68
2016-06-19T07:16:59.320Z,66.82
2016-06-19T07:17:59.964Z,67.3
2016-06-19T07:18:59.953Z,66.43
2016-06-19T07:19:59.940Z,66.62
2016-06-19T07:20:59.272Z,67.2
2016-06-19T07:21:59.901Z,67.1
2016-06-19T07:22:59.888Z,66.82
2016-06-19T07:23:59.876Z,66.43
2016-06-19T07:24:59.863Z,67.2
2016-06-19T07:25:59.852Z,66.91
2016-06-19T07:26:59.183Z,66.52
2016-06-19T07:27:59.828Z,67.1
2016-06-19T07:28:59.816Z,66.52
2016-06-19T07:29:59.802Z,66.08
2016-06-19T07:30:59.775Z,66.66
2016-06-19T07:31:59.779Z,66.62
2016-06-19T07:32:59.095Z,66.62
2016-06-19T07:33:59.083Z,66.33
2016-06-19T07:34:59.727Z,66.91
2016-06-19T07:35:59.074Z,66.56
2016-06-19T07:36:59.062Z,67.14
2016-06-19T07:37:59.690Z,66.46
2016-06-19T07:38:59.678Z,66.66
2016-06-19T07:39:59.009Z,66.56
2016-06-19T07:40:59.638Z,66.08
2016-06-19T07:41:58.985Z,65.56
2016-06-19T07:42:58.973Z,65.69
2016-06-19T07:43:58.961Z,65.69
2016-06-19T07:44:58.932Z,65.59
2016-06-19T07:45:59.577Z,65.69
2016-06-19T07:46:59.550Z,65.69
2016-06-19T07:47:58.912Z,65.69
2016-06-19T07:48:59.541Z,65.59
2016-06-19T07:49:58.888Z,65.78
2016-06-19T07:50:58.860Z,65.98
2016-06-19T07:51:58.831Z,66.17
2016-06-19T07:52:58.835Z,66.36
2016-06-19T07:53:58.808Z,65.69
2016-06-19T07:54:59.452Z,65.78
2016-06-19T07:55:59.440Z,65.98
2016-06-19T07:56:58.771Z,65.78
2016-06-19T07:57:58.760Z,65.69
2016-06-19T07:58:58.747Z,65.59
2016-06-19T07:59:59.376Z,65.5
2016-06-19T08:00:59.379Z,65.43
2016-06-19T08:01:59.366Z,65.5
2016-06-19T08:02:58.699Z,65.43
2016-06-19T08:03:58.686Z,65.14
2016-06-19T08:04:59.346Z,65.24
2016-06-19T08:05:59.302Z,64.86
2016-06-19T08:06:58.634Z,64.37
2016-06-19T08:07:58.623Z,64.47
2016-06-19T08:08:58.625Z,64.18
2016-06-19T08:09:58.599Z,63.79
2016-06-19T08:10:59.241Z,63.79
2016-06-19T08:11:59.230Z,64.28
2016-06-19T08:12:58.561Z,64.08
2016-06-19T08:13:58.565Z,63.31
2016-06-19T08:14:58.537Z,63.6
2016-06-19T08:15:58.525Z,63.53
2016-06-19T08:16:59.169Z,63.7
2016-06-19T08:17:58.500Z,62.66
2016-06-19T08:18:59.129Z,63.24
2016-06-19T08:19:58.461Z,62.95
2016-06-19T08:20:59.104Z,63.05
2016-06-19T08:21:59.077Z,62.95
2016-06-19T08:22:58.439Z,63.15
2016-06-19T08:23:58.428Z,62.95
2016-06-19T08:24:58.415Z,63.15
2016-06-19T08:25:59.043Z,62.57
2016-06-19T08:26:59.032Z,61.89
2016-06-19T08:27:58.378Z,61.92
2016-06-19T08:28:58.335Z,61.54
2016-06-19T08:29:58.995Z,61.15
2016-06-19T08:30:58.983Z,61.83
2016-06-19T08:31:58.955Z,61.83
2016-06-19T08:32:58.287Z,61.83
2016-06-19T08:33:58.290Z,61.27
2016-06-19T08:34:58.919Z,61.47
2016-06-19T08:35:58.266Z,61.15
2016-06-19T08:36:58.253Z,60.5
2016-06-19T08:37:58.882Z,60.21
2016-06-19T08:38:58.213Z,59.92
2016-06-19T08:39:58.202Z,59.7
2016-06-19T08:40:58.846Z,59.73
2016-06-19T08:41:58.177Z,59.25
2016-06-19T08:42:58.821Z,59.73
2016-06-19T08:43:58.168Z,60.02
2016-06-19T08:44:58.799Z,59.25
2016-06-19T08:45:58.134Z,59.34
2016-06-19T08:46:58.124Z,59.34
2016-06-19T08:47:58.755Z,59.34
2016-06-19T08:48:58.746Z,58.76
2016-06-19T08:49:58.735Z,58.6
2016-06-19T08:50:58.739Z,58.7
2016-06-19T08:51:58.713Z,58.31
2016-06-19T08:52:58.717Z,58.89
2016-06-19T08:53:58.706Z,58.21
2016-06-19T08:54:58.679Z,58.31
2016-06-19T08:55:58.027Z,58.31
2016-06-19T08:56:58.656Z,57.82
2016-06-19T08:57:58.643Z,58.21
2016-06-19T08:58:58.632Z,58.31
2016-06-19T08:59:58.620Z,57.82
2016-06-19T09:00:57.967Z,56.67
2016-06-19T09:01:57.955Z,54.44
2016-06-19T09:02:57.943Z,54.35
2016-06-19T09:03:58.571Z,54.73
2016-06-19T09:04:58.559Z,54.63
2016-06-19T09:05:57.891Z,54.47
2016-06-19T09:06:58.550Z,53.79
2016-06-19T09:07:58.523Z,53.59
2016-06-19T09:08:57.854Z,52.63
2016-06-19T09:09:58.498Z,53.02
2016-06-19T09:10:57.830Z,53.11
2016-06-19T09:11:57.817Z,52.44
2016-06-19T09:12:58.462Z,52.44
2016-06-19T09:13:58.449Z,52.46
2016-06-19T09:14:57.781Z,52.46
2016-06-19T09:15:58.425Z,52.27
2016-06-19T09:16:58.413Z,51.68
2016-06-19T09:17:57.761Z,50.92
2016-06-19T09:18:58.389Z,51.4
2016-06-19T09:19:58.377Z,51.4
2016-06-19T09:20:58.365Z,51.2
2016-06-19T09:21:58.353Z,51.3
2016-06-19T09:22:58.324Z,51.01
2016-06-19T09:23:58.328Z,51.4
2016-06-19T09:24:58.315Z,51.68
2016-06-19T09:25:57.647Z,51.68
2016-06-19T09:26:58.292Z,51.78
2016-06-19T09:27:58.279Z,51.23
2016-06-19T09:28:57.611Z,51.23
2016-06-19T09:29:58.254Z,51.32
2016-06-19T09:30:58.242Z,50.94
2016-06-19T09:31:57.574Z,51.13
2016-06-19T09:32:57.563Z,51.13
2016-06-19T09:33:57.550Z,51.32
2016-06-19T09:34:58.195Z,50.84
2016-06-19T09:35:58.181Z,50.84
2016-06-19T09:36:57.513Z,50.45
2016-06-19T09:37:57.501Z,50.26
2016-06-19T09:38:57.489Z,49.49
2016-06-19T09:39:58.149Z,49.39
2016-06-19T09:40:58.136Z,49.41
2016-06-19T09:41:58.108Z,49.22
2016-06-19T09:42:57.456Z,49.7
2016-06-19T09:43:58.084Z,49.7
2016-06-19T09:44:57.416Z,49.61
2016-06-19T09:45:57.404Z,49.32
2016-06-19T09:46:57.392Z,49.41
2016-06-19T09:47:57.395Z,49.02
2016-06-19T09:48:57.367Z,49.05
2016-06-19T09:49:57.355Z,47.96
2016-06-19T09:50:57.999Z,47.4
2016-06-19T09:51:57.987Z,47.79
2016-06-19T09:52:57.319Z,47.6
2016-06-19T09:53:57.322Z,47.11
2016-06-19T09:54:57.950Z,47.02
2016-06-19T09:55:57.954Z,46.53
2016-06-19T09:56:57.301Z,45.85
2016-06-19T09:57:57.930Z,46.04
2016-06-19T09:58:57.246Z,45.47
2016-06-19T09:59:57.890Z,45.56
2016-06-19T10:00:57.237Z,45.27
2016-06-19T10:01:57.865Z,45.29
2016-06-19T10:02:57.213Z,46.07
2016-06-19T10:03:57.201Z,45.2
2016-06-19T10:04:57.829Z,45.58
2016-06-19T10:05:57.816Z,45.58
2016-06-19T10:06:57.805Z,44.81
2016-06-19T10:07:57.808Z,44.9
2016-06-19T10:08:57.140Z,44.9
2016-06-19T10:09:57.784Z,45.1
2016-06-19T10:10:57.772Z,44.9
2016-06-19T10:11:57.103Z,43.74
2016-06-19T10:12:57.747Z,43.95
2016-06-19T10:13:57.079Z,43.76
2016-06-19T10:14:57.082Z,43.47
2016-06-19T10:15:57.055Z,43.27
2016-06-19T10:16:57.058Z,43.68
2016-06-19T10:17:57.030Z,43.49
2016-06-19T10:18:57.674Z,43.4
2016-06-19T10:19:57.006Z,43.2
2016-06-19T10:20:57.009Z,43.78
2016-06-19T10:21:56.997Z,43.2
2016-06-19T10:22:56.985Z,42.81
2016-06-19T10:23:57.614Z,43.4
2016-06-19T10:24:57.617Z,43.4
2016-06-19T10:25:56.948Z,42.93
2016-06-19T10:26:57.593Z,42.54
2016-06-19T10:27:57.580Z,41.47
2016-06-19T10:28:57.568Z,42.54
2016-06-19T10:29:57.556Z,42.54
2016-06-19T10:30:56.903Z,42.44
2016-06-19T10:31:57.532Z,41.96
2016-06-19T10:32:56.879Z,41.77
2016-06-19T10:33:57.508Z,41.59
2016-06-19T10:34:56.855Z,40.81
2016-06-19T10:35:56.842Z,40.91
2016-06-19T10:36:57.487Z,40.72
2016-06-19T10:37:56.818Z,40.81
2016-06-19T10:38:56.805Z,41.1
2016-06-19T10:39:57.450Z,41.22
2016-06-19T10:40:57.437Z,39.76
2016-06-19T10:41:56.785Z,40.95
2016-06-19T10:42:56.774Z,40.17
2016-06-19T10:43:56.777Z,39.39
2016-06-19T10:44:56.765Z,39.22
2016-06-19T10:45:56.736Z,38.93
2016-06-19T10:46:57.380Z,39.03
2016-06-19T10:47:57.368Z,39.04
2016-06-19T10:48:57.340Z,38.17
2016-06-19T10:49:56.704Z,37.39
2016-06-19T10:50:56.691Z,38.07
2016-06-19T10:51:56.680Z,38.07
2016-06-19T10:52:56.666Z,37.97
2016-06-19T10:53:56.655Z,37.68
2016-06-19T10:54:57.299Z,38.26
2016-06-19T10:55:56.630Z,37.87
2016-06-19T10:56:57.274Z,37.68
2016-06-19T10:57:57.278Z,37.5
2016-06-19T10:58:56.610Z,36.94
2016-06-19T10:59:57.253Z,36.74
2016-06-19T11:00:57.242Z,36.94
2016-06-19T11:01:56.591Z,37.43
2016-06-19T11:02:57.221Z,37.23
2016-06-19T11:03:56.569Z,37.71
2016-06-19T11:04:57.231Z,37.21
2016-06-19T11:05:56.547Z,36.16
2016-06-19T11:06:56.535Z,36.27
2016-06-19T11:07:57.180Z,36.37
2016-06-19T11:08:57.184Z,35.69
2016-06-19T11:09:56.501Z,35.12
2016-06-19T11:10:57.145Z,35.04
2016-06-19T11:11:57.134Z,35.92
2016-06-19T11:12:57.138Z,35.51
2016-06-19T11:13:57.109Z,35.63
2016-06-19T11:14:57.114Z,37.05
2016-06-19T11:15:57.102Z,36.08
2016-06-19T11:16:57.089Z,36.19
2016-06-19T11:17:57.093Z,35.22
2016-06-19T11:18:56.424Z,35.43
2016-06-19T11:19:56.413Z,34.77
2016-06-19T11:20:56.416Z,35.25
2016-06-19T11:21:57.045Z,34.96
2016-06-19T11:22:57.032Z,34.96
2016-06-19T11:23:57.036Z,33.89
2016-06-19T11:24:56.367Z,33.41
2016-06-19T11:25:57.011Z,33.31
2016-06-19T11:26:56.358Z,33.23
2016-06-19T11:27:56.347Z,32.45
2016-06-19T11:28:56.990Z,32.95
2016-06-19T11:29:56.978Z,32.94
2016-06-19T11:30:56.982Z,32.65
2016-06-19T11:31:56.313Z,32.87
2016-06-19T11:32:56.301Z,32.17
2016-06-19T11:33:56.961Z,32.46
2016-06-19T11:34:56.948Z,32.66
2016-06-19T11:35:56.936Z,33.36
2016-06-19T11:36:56.267Z,33.34
2016-06-19T11:37:56.271Z,32.97
2016-06-19T11:38:56.899Z,32.87
2016-06-19T11:39:56.247Z,32.58
2016-06-19T11:40:56.891Z,32.76
2016-06-19T11:41:56.878Z,31.7
2016-06-19T11:42:56.883Z,31.91
2016-06-19T11:43:56.886Z,31.04
2016-06-19T11:44:56.874Z,31.26
2016-06-19T11:45:56.862Z,30.29
2016-06-19T11:46:56.224Z,30.19
2016-06-19T11:47:56.869Z,29.91
2016-06-19T11:48:56.856Z,30.19
2016-06-19T11:49:56.859Z,29.98
2016-06-19T11:50:56.207Z,29.6
2016-06-19T11:51:56.210Z,29.9
2016-06-19T11:52:56.838Z,29.62
2016-06-19T11:53:56.218Z,29.13
2016-06-19T11:54:56.846Z,29.24
2016-06-19T11:55:56.194Z,28.67
2016-06-19T11:56:56.853Z,27.7
2016-06-19T11:57:56.857Z,27.33
2016-06-19T11:58:56.843Z,27.72
2016-06-19T11:59:56.191Z,26.93
2016-06-19T12:00:56.195Z,26.65
2016-06-19T12:01:56.198Z,25.98
2016-06-19T12:02:56.201Z,26.88
2016-06-19T12:03:56.205Z,25.88
2016-06-19T12:04:56.865Z,25.89
2016-06-19T12:05:56.853Z,26.18
2016-06-19T12:06:56.856Z,25.28
2016-06-19T12:07:56.860Z,24.99
2016-06-19T12:08:56.864Z,24.63
2016-06-19T12:09:56.866Z,23.76
2016-06-19T12:10:56.870Z,23.95
2016-06-19T12:11:56.217Z,23.85
2016-06-19T12:12:56.237Z,23.95
2016-06-19T12:13:56.225Z,23.85
2016-06-19T12:14:56.884Z,24.02
2016-06-19T12:15:56.246Z,23.84
2016-06-19T12:16:56.235Z,23.54
2016-06-19T12:17:56.894Z,22.86
2016-06-19T12:18:56.242Z,22.97
2016-06-19T12:19:56.901Z,23.27
2016-06-19T12:20:56.905Z,23.15
2016-06-19T12:21:56.268Z,22.95
2016-06-19T12:22:56.911Z,21.79
2016-06-19T12:23:56.290Z,20.92
2016-06-19T12:24:56.278Z,22.3
2016-06-19T12:25:56.297Z,23.07
2016-06-19T12:26:56.926Z,23.17
2016-06-19T12:27:56.288Z,22.38
2016-06-19T12:28:56.963Z,21.71
2016-06-19T12:29:56.936Z,20.65
2016-06-19T12:30:56.940Z,20.94
2016-06-19T12:31:56.957Z,21.39
2016-06-19T12:32:56.961Z,20.81
2016-06-19T12:33:56.965Z,20.53
2016-06-19T12:34:56.968Z,19.46
2016-06-19T12:35:56.971Z,19.56
2016-06-19T12:36:56.335Z,19.26
2016-06-19T12:37:56.978Z,19.66
2016-06-19T12:38:56.343Z,20.35
2016-06-19T12:39:57.001Z,20.23
2016-06-19T12:40:56.349Z,20.32
2016-06-19T12:41:56.353Z,19.84
2016-06-19T12:42:56.356Z,20.34
2016-06-19T12:43:57.016Z,19.56
2016-06-19T12:44:57.019Z,19.35
2016-06-19T12:45:56.382Z,19.35
2016-06-19T12:46:56.384Z,18.48
2016-06-19T12:47:57.029Z,18.68
2016-06-19T12:48:57.049Z,18.88
2016-06-19T12:49:57.052Z,18.08
2016-06-19T12:50:56.398Z,17.8
2016-06-19T12:51:56.402Z,17.71
2016-06-19T12:52:57.062Z,17.43
2016-06-19T12:53:57.081Z,17.91
2016-06-19T12:54:56.429Z,18.8